GABD weather

Bandiagara Airport
Bandiagara, Mopti Region, Mali

Public forecast

Using degrees Celsius for public forecast. Weather courtesy of forecast.io.

METAR (pilot weather report)

Closest report is Mopti Airport, 29.9 nm (55.4 km) WNW. Retrieved 2019/03/26 09:00 UTC (1 hour ago):

GAMB 260900Z 04022KT 1500 R05/1000N BLDU NSC 34/M04 Q1010

TAF (pilot weather forecast)

Closest forecast is Ouagadougou Airport, 170.3 nm (315.4 km) SE. Retrieved 2019/03/26 06:21 UTC (4 hours ago):

TAF TAF DFFD 260500Z 2606/2712 20008KT 8000 NSC